エカテリンブルク の空港の天気 - METARとTAF

コルツォヴォ空港 ( USSS / SVX ) - ロシア エカテリンブルク
飛行場実況気象(Metar)
観測時間04/27 21:30 +05 (04/27 16:30 UTC)
風向・風速南 3m/s
視程10km以上
天気現象
なし
気温9℃
湿度53%
気圧1022hPa
METARUSSS 271630Z 17003MPS CAVOK 09/00 Q1022 R26R/010060 NOSIG RMK QFE746/0995
過去の天気等 Google飛行場航空写真 Wunderground天気予報

過去48時間のMETAR

飛行場予報(TAF)
発表時間: 4/27 18:56 +05 (4/27 13:56 UTC)
予報対象時間: 27日20時 +05 ~ 28日20時 +05
風向・風速南西 6m/s
視程10km以上
全天の4割程度の積乱雲 雲底高度 910m
27日20時 +05 ~ 28日8時 +05 に一時的に
風向・風速南西 14m/s
視程3,100m
天気現象弱いしゅう雨
全天の8割程度の積乱雲 雲底高度 300m
TAF USSS 271356Z 2715/2815 22006MPS 9999 SCT030CB
TEMPO 2715/2803 23014MPS 3100 -SHRA BKN010CB